Time;durP1;ratioP1;P1;durP2;ratioP2;P2;SDS_P1;SDS_P2;PMS_P1;PMS_P2;Temp;Humidity;BMP_temperature;BMP_pressure;BME280_temperature;BME280_humidity;BME280_pressure;Samples;Min_cycle;Max_cycle;Signal;HPM_P1;HPM_P2
2022/11/08 00:02:34;;;;;;;13.55;3.08;;;12.60;99.90;;;;;;5093924;28;20052;-59
2022/11/08 00:16:19;;;;;;;15.15;3.38;;;12.50;99.90;;;;;;5092985;28;20113;-59
2022/11/08 00:18:49;;;;;;;13.52;3.38;;;12.50;99.90;;;;;;5093297;28;20071;-59
2022/11/08 00:21:20;;;;;;;11.93;3.03;;;12.50;99.90;;;;;;5092968;28;20489;-59
2022/11/08 00:23:51;;;;;;;13.27;3.00;;;12.60;99.90;;;;;;5092874;28;20047;-58
2022/11/08 00:26:22;;;;;;;12.63;2.92;;;12.60;99.90;;;;;;5091460;28;20457;-58
2022/11/08 00:28:52;;;;;;;15.07;4.40;;;12.60;99.90;;;;;;5093387;28;20048;-58
2022/11/08 00:31:25;;;;;;;15.65;3.35;;;12.60;99.90;;;;;;5093032;28;20040;-59
2022/11/08 00:33:54;;;;;;;14.07;3.55;;;12.60;99.90;;;;;;5092850;28;20377;-58
2022/11/08 00:36:23;;;;;;;11.57;2.85;;;12.50;99.90;;;;;;5092375;28;20402;-59
2022/11/08 00:38:52;;;;;;;19.23;3.60;;;12.60;99.90;;;;;;5092490;28;20051;-58
2022/11/08 00:41:27;;;;;;;18.58;3.35;;;12.60;99.90;;;;;;5092829;28;20040;-58
2022/11/08 00:43:57;;;;;;;20.50;4.38;;;12.60;99.90;;;;;;5092667;28;20052;-59
2022/11/08 00:46:24;;;;;;;10.25;2.80;;;12.50;99.90;;;;;;5092518;28;20032;-58
2022/11/08 00:48:56;;;;;;;13.43;3.47;;;12.60;99.90;;;;;;5092501;28;20379;-58
2022/11/08 00:51:25;;;;;;;12.55;3.28;;;12.50;99.90;;;;;;5091788;28;20087;-59
2022/11/08 00:53:56;;;;;;;13.88;2.67;;;12.60;99.90;;;;;;5091142;28;20128;-58
2022/11/08 00:56:23;;;;;;;13.50;3.10;;;12.50;99.90;;;;;;5092149;28;20556;-59
2022/11/08 00:58:50;;;;;;;13.40;2.88;;;12.50;99.90;;;;;;5092436;28;20036;-58
2022/11/08 01:01:20;;;;;;;11.15;2.83;;;12.50;99.90;;;;;;5092529;28;20044;-59
2022/11/08 01:03:48;;;;;;;14.13;2.70;;;12.60;99.90;;;;;;5092275;28;20098;-59
2022/11/08 01:06:17;;;;;;;;;;;12.60;99.90;;;;;;5092683;28;20040;-59
2022/11/08 01:08:45;;;;;;;12.23;2.40;;;12.50;99.90;;;;;;5092474;28;19920;-59
2022/11/08 01:11:14;;;;;;;;;;;12.70;99.90;;;;;;5092580;28;20123;-58
2022/11/08 01:13:47;;;;;;;13.38;3.35;;;12.60;99.90;;;;;;5091786;28;19916;-58
2022/11/08 01:16:20;;;;;;;14.38;3.65;;;12.50;99.90;;;;;;5074281;28;20059;-58
2022/11/08 01:18:51;;;;;;;17.85;2.95;;;12.60;99.90;;;;;;5092224;28;20482;-59
2022/11/08 01:21:21;;;;;;;15.32;3.55;;;12.60;99.90;;;;;;5092236;28;20044;-59
2022/11/08 01:23:49;;;;;;;;;;;12.60;99.90;;;;;;5091971;28;20123;-58
2022/11/08 01:26:21;;;;;;;14.30;3.92;;;12.60;99.90;;;;;;5092394;28;19966;-58
2022/11/08 01:28:48;;;;;;;11.95;2.85;;;12.60;99.90;;;;;;5092088;28;20486;-59
2022/11/08 01:31:19;;;;;;;12.43;3.17;;;12.60;99.90;;;;;;5091279;28;20123;-59
2022/11/08 01:33:51;;;;;;;12.02;2.80;;;12.60;99.90;;;;;;5092230;28;20115;-59
2022/11/08 01:36:25;;;;;;;14.95;3.38;;;12.60;99.90;;;;;;5092792;28;20394;-58
2022/11/08 01:38:54;;;;;;;12.05;3.10;;;12.50;99.90;;;;;;5091930;28;20115;-58
2022/11/08 01:41:26;;;;;;;11.02;3.17;;;12.40;99.90;;;;;;5091773;28;20044;-58
2022/11/08 01:43:58;;;;;;;13.45;2.63;;;12.40;99.90;;;;;;5091793;28;20032;-59
2022/11/08 01:46:32;;;;;;;9.57;3.15;;;12.40;99.90;;;;;;5091017;28;20478;-59
2022/11/08 01:49:30;;;;;;;15.68;3.13;;;12.40;99.90;;;;;;5091805;28;20403;-58
2022/11/08 01:52:07;;;;;;;12.95;2.50;;;12.40;99.90;;;;;;5092129;28;20434;-58
2022/11/08 01:54:53;;;;;;;11.25;3.25;;;12.30;99.90;;;;;;5091926;28;20047;-58
2022/11/08 01:57:46;;;;;;;7.13;2.40;;;12.30;99.90;;;;;;5090952;28;20032;-59
2022/11/08 02:00:15;;;;;;;10.30;2.90;;;12.40;99.90;;;;;;5091768;28;20044;-59
2022/11/08 02:02:53;;;;;;;18.10;3.17;;;12.40;99.90;;;;;;5091814;28;20375;-59
2022/11/08 02:05:24;;;;;;;13.40;3.53;;;12.40;99.90;;;;;;5091612;28;20062;-59
2022/11/08 02:08:23;;;;;;;15.23;4.25;;;12.40;99.90;;;;;;5092037;28;20044;-59
2022/11/08 02:10:54;;;;;;;9.77;2.63;;;12.40;99.90;;;;;;4989933;28;20058;-58
2022/11/08 02:13:24;;;;;;;13.57;2.92;;;12.30;99.90;;;;;;4990326;28;20041;-59
2022/11/08 02:15:51;;;;;;;10.88;2.20;;;12.30;99.90;;;;;;4990543;28;20043;-59
2022/11/08 02:18:22;;;;;;;12.02;2.40;;;12.30;99.90;;;;;;4990203;28;20034;-59
2022/11/08 02:21:07;;;;;;;9.15;2.47;;;12.30;99.90;;;;;;4994038;28;20141;-59
2022/11/08 02:23:55;;;;;;;15.63;3.33;;;12.20;99.90;;;;;;4993727;28;20042;-59
2022/11/08 02:26:31;;;;;;;15.77;3.67;;;12.30;99.90;;;;;;4993785;28;20042;-59
2022/11/08 02:28:59;;;;;;;9.82;3.13;;;12.20;99.90;;;;;;4993626;28;20046;-59
2022/11/08 02:31:28;;;;;;;12.95;2.88;;;12.20;99.90;;;;;;4993346;28;20043;-58
2022/11/08 02:33:56;;;;;;;11.35;2.58;;;12.20;99.90;;;;;;4993514;28;20129;-59
2022/11/08 02:36:24;;;;;;;14.23;3.17;;;12.10;99.90;;;;;;4993308;28;20421;-59
2022/11/08 02:38:59;;;;;;;8.90;2.40;;;12.10;99.90;;;;;;4993525;28;20446;-58
2022/11/08 02:41:34;;;;;;;10.55;2.88;;;12.10;99.90;;;;;;4993008;28;20130;-58
2022/11/08 02:44:02;;;;;;;10.75;2.47;;;12.00;99.90;;;;;;4993410;28;20185;-59
2022/11/08 02:46:29;;;;;;;10.55;2.65;;;12.10;99.90;;;;;;5015886;28;20074;-59
2022/11/08 02:48:58;;;;;;;12.13;2.55;;;12.00;99.90;;;;;;5095042;28;20110;-58
2022/11/08 02:51:25;;;;;;;8.97;2.83;;;12.00;99.90;;;;;;5094989;28;20050;-58
2022/11/08 02:53:53;;;;;;;12.38;3.10;;;11.90;99.90;;;;;;5094853;28;20069;-59
2022/11/08 02:56:22;;;;;;;10.30;2.38;;;12.00;99.90;;;;;;5095235;28;20036;-59
2022/11/08 02:58:48;;;;;;;;;;;11.90;99.90;;;;;;5094986;28;20028;-59
2022/11/08 03:01:17;;;;;;;9.93;2.88;;;11.90;99.90;;;;;;5094843;28;19963;-58
2022/11/08 03:03:44;;;;;;;18.50;3.40;;;11.90;99.90;;;;;;5094942;28;20044;-59
2022/11/08 03:06:13;;;;;;;12.20;3.03;;;11.80;99.90;;;;;;5095077;28;20048;-59
2022/11/08 03:08:41;;;;;;;11.45;3.22;;;11.80;99.90;;;;;;5093769;28;20044;-59
2022/11/08 03:11:12;;;;;;;14.00;2.72;;;11.90;99.90;;;;;;5094503;28;20079;-58
2022/11/08 03:13:41;;;;;;;10.25;2.95;;;11.80;99.90;;;;;;5094707;28;20046;-58
2022/11/08 03:16:08;;;;;;;13.07;3.55;;;11.80;99.90;;;;;;5094803;28;20136;-59
2022/11/08 03:18:36;;;;;;;10.35;2.40;;;11.80;99.90;;;;;;5094525;28;20040;-59
2022/11/08 03:21:03;;;;;;;9.57;2.42;;;11.80;99.90;;;;;;5094033;28;20061;-58
2022/11/08 03:23:32;;;;;;;11.00;2.97;;;11.80;99.90;;;;;;5094013;28;20122;-58
2022/11/08 03:26:05;;;;;;;9.63;2.65;;;11.70;99.90;;;;;;5093709;28;20340;-58
2022/11/08 03:28:34;;;;;;;10.77;2.90;;;11.70;99.90;;;;;;5092700;28;20039;-59
2022/11/08 03:31:03;;;;;;;11.18;3.25;;;11.60;99.90;;;;;;5093460;28;20043;-59
2022/11/08 03:33:30;;;;;;;15.15;2.70;;;11.60;99.90;;;;;;5093963;28;20036;-58
2022/11/08 03:35:58;;;;;;;10.88;2.63;;;11.60;99.90;;;;;;5094250;28;20032;-59
2022/11/08 03:38:25;;;;;;;8.95;2.92;;;11.60;99.90;;;;;;5093929;28;20482;-59
2022/11/08 03:40:54;;;;;;;13.03;2.77;;;11.60;99.90;;;;;;5093396;28;20466;-58
2022/11/08 03:43:23;;;;;;;9.48;2.38;;;11.60;99.90;;;;;;5093577;28;20040;-59
2022/11/08 03:45:52;;;;;;;9.35;2.42;;;11.50;99.90;;;;;;5093726;28;20169;-59
2022/11/08 03:48:22;;;;;;;13.30;3.30;;;11.60;99.90;;;;;;5093859;28;20052;-59
2022/11/08 03:50:50;;;;;;;;;;;11.50;99.90;;;;;;5094292;28;20051;-59
2022/11/08 03:53:18;;;;;;;14.88;3.10;;;11.50;99.90;;;;;;5093478;28;19919;-62
2022/11/08 03:55:47;;;;;;;12.15;3.15;;;11.60;99.90;;;;;;5094039;28;20390;-61
2022/11/08 03:58:16;;;;;;;11.60;2.70;;;11.50;99.90;;;;;;5094017;28;20090;-62
2022/11/08 04:00:45;;;;;;;15.90;4.07;;;11.50;99.90;;;;;;5093760;28;20474;-61
2022/11/08 04:03:13;;;;;;;;;;;11.50;99.90;;;;;;5093470;28;20506;-62
2022/11/08 04:05:41;;;;;;;10.45;2.53;;;11.50;99.90;;;;;;5093911;28;19916;-61
2022/11/08 04:08:09;;;;;;;8.07;2.53;;;11.50;99.90;;;;;;5093518;28;20090;-61
2022/11/08 04:10:38;;;;;;;14.23;2.85;;;11.40;99.90;;;;;;5092843;28;20445;-61
2022/11/08 04:15:57;;;;;;;12.27;3.60;;;11.30;99.90;;;;;;5093332;28;20040;-61
2022/11/08 04:21:18;;;;;;;11.20;3.00;;;11.40;99.90;;;;;;5094040;28;20083;-62
2022/11/08 04:23:49;;;;;;;7.28;2.95;;;11.40;99.90;;;;;;5093183;28;20062;-61
2022/11/08 04:26:24;;;;;;;9.00;2.80;;;11.30;99.90;;;;;;5093209;28;20036;-61
2022/11/08 04:28:53;;;;;;;8.75;2.58;;;11.20;99.90;;;;;;5093028;28;20482;-61
2022/11/08 04:31:23;;;;;;;10.25;2.65;;;11.30;99.90;;;;;;5093502;28;20138;-62
2022/11/08 04:33:53;;;;;;;10.80;2.73;;;11.20;99.90;;;;;;5093304;28;20040;-61
2022/11/08 04:36:23;;;;;;;10.55;2.97;;;11.20;99.90;;;;;;5093085;28;20425;-61
2022/11/08 04:38:51;;;;;;;11.50;3.17;;;11.20;99.90;;;;;;5093098;28;20437;-61
2022/11/08 04:41:23;;;;;;;7.40;2.33;;;11.10;99.90;;;;;;5091863;28;20134;-61
2022/11/08 04:43:53;;;;;;;12.90;3.22;;;11.20;99.90;;;;;;5092966;28;20078;-61
2022/11/08 04:46:26;;;;;;;11.93;2.95;;;11.20;99.90;;;;;;5093447;28;20136;-61
2022/11/08 04:48:57;;;;;;;11.98;2.92;;;11.10;99.90;;;;;;5092249;28;20117;-61
2022/11/08 04:51:26;;;;;;;7.85;2.65;;;11.20;99.90;;;;;;5093012;28;20046;-61
2022/11/08 04:53:56;;;;;;;10.30;2.65;;;11.10;99.90;;;;;;5092046;28;20048;-61
2022/11/08 04:56:29;;;;;;;16.80;3.20;;;11.20;99.90;;;;;;5093056;28;20032;-61
2022/11/08 04:59:01;;;;;;;10.43;2.72;;;11.20;99.90;;;;;;5093103;28;20036;-62
2022/11/08 05:01:30;;;;;;;10.55;3.28;;;11.30;99.90;;;;;;5092852;28;20101;-61
2022/11/08 05:04:00;;;;;;;7.40;2.38;;;11.20;99.90;;;;;;5092584;28;20082;-62
2022/11/08 05:06:33;;;;;;;8.00;2.35;;;11.20;99.90;;;;;;5092474;28;20070;-61
2022/11/08 05:09:08;;;;;;;9.25;2.97;;;11.30;99.90;;;;;;5092344;28;20048;-61
2022/11/08 05:11:38;;;;;;;9.98;2.80;;;11.20;99.90;;;;;;5092314;28;20080;-62
2022/11/08 05:14:08;;;;;;;10.45;2.65;;;11.30;99.90;;;;;;5092610;28;20042;-61
2022/11/08 05:16:35;;;;;;;17.48;2.63;;;11.20;99.90;;;;;;5092697;28;20112;-61
2022/11/08 05:19:05;;;;;;;10.70;2.60;;;11.30;99.90;;;;;;5092543;28;20402;-61
2022/11/08 05:24:22;;;;;;;11.30;2.83;;;11.20;99.90;;;;;;5092612;28;20127;-61
2022/11/08 05:26:51;;;;;;;8.05;2.70;;;11.20;99.90;;;;;;5092811;28;20097;-61
2022/11/08 05:29:21;;;;;;;16.13;2.95;;;11.40;99.90;;;;;;5092180;28;20047;-62
2022/11/08 05:31:50;;;;;;;7.88;2.50;;;11.10;99.90;;;;;;5073297;28;20075;-62
2022/11/08 05:34:20;;;;;;;9.95;2.67;;;11.10;99.90;;;;;;5092595;28;20032;-62
2022/11/08 05:36:47;;;;;;;7.63;2.38;;;11.10;99.90;;;;;;5092401;28;20386;-62
2022/11/08 05:39:14;;;;;;;7.75;2.13;;;11.10;99.90;;;;;;5092392;28;20043;-62
2022/11/08 05:41:43;;;;;;;12.82;2.80;;;11.10;99.90;;;;;;5072258;28;20523;-62
2022/11/08 05:44:13;;;;;;;9.52;2.83;;;11.00;99.90;;;;;;5092097;28;20073;-62
2022/11/08 05:46:41;;;;;;;9.80;2.50;;;11.00;99.90;;;;;;5091327;28;20105;-61
2022/11/08 05:49:07;;;;;;;8.95;2.38;;;11.00;99.90;;;;;;5091597;28;20059;-62
2022/11/08 05:51:34;;;;;;;8.50;2.35;;;11.00;99.90;;;;;;5092090;28;20044;-62
2022/11/08 05:54:07;;;;;;;10.38;2.42;;;10.90;99.90;;;;;;5095909;28;20542;-62
2022/11/08 05:56:36;;;;;;;11.30;2.30;;;11.00;99.90;;;;;;5096503;28;20039;-62
2022/11/08 05:59:03;;;;;;;9.55;2.28;;;11.00;99.90;;;;;;5096328;28;20382;-61
2022/11/08 06:01:29;;;;;;;10.23;2.25;;;10.90;99.90;;;;;;5096448;28;20089;-62
2022/11/08 06:03:56;;;;;;;10.27;2.58;;;11.00;99.90;;;;;;5095372;28;20097;-62
2022/11/08 06:06:23;;;;;;;11.57;2.55;;;11.00;99.90;;;;;;5096736;28;20119;-61
2022/11/08 06:08:52;;;;;;;9.77;2.58;;;11.00;99.90;;;;;;5096294;28;20126;-61
2022/11/08 06:11:21;;;;;;;9.40;2.45;;;11.00;99.90;;;;;;5095418;28;20189;-61
2022/11/08 06:13:48;;;;;;;7.57;2.75;;;11.00;99.90;;;;;;5096406;28;20111;-62
2022/11/08 06:16:17;;;;;;;6.28;2.28;;;11.10;99.90;;;;;;5096053;28;20040;-62
2022/11/08 06:18:43;;;;;;;9.43;2.30;;;11.10;99.90;;;;;;5095398;28;20394;-61
2022/11/08 06:21:16;;;;;;;5.80;2.20;;;11.10;99.90;;;;;;5096168;28;20047;-62
2022/11/08 06:23:43;;;;;;;8.90;2.25;;;11.10;99.90;;;;;;5096033;28;20502;-62
2022/11/08 06:26:09;;;;;;;8.38;1.88;;;11.10;99.90;;;;;;5095900;28;20444;-62
2022/11/08 06:28:37;;;;;;;5.45;2.47;;;11.00;99.90;;;;;;5096110;28;20044;-62
2022/11/08 06:31:06;;;;;;;7.73;2.40;;;11.10;99.90;;;;;;5095942;28;20080;-61
2022/11/08 06:33:32;;;;;;;9.63;1.80;;;11.10;99.90;;;;;;5095493;28;20369;-62
2022/11/08 06:35:59;;;;;;;6.22;2.05;;;11.10;99.90;;;;;;5096182;28;20040;-62
2022/11/08 06:38:25;;;;;;;6.30;2.50;;;11.10;99.90;;;;;;5096332;28;20044;-62
2022/11/08 06:40:52;;;;;;;10.52;2.25;;;11.10;99.90;;;;;;5096040;28;20044;-62
2022/11/08 06:43:21;;;;;;;9.15;2.03;;;11.10;99.90;;;;;;5095000;28;20118;-62
2022/11/08 06:45:48;;;;;;;;;;;11.10;99.90;;;;;;5096064;28;20047;-62
2022/11/08 06:48:18;;;;;;;8.38;2.42;;;11.10;99.90;;;;;;5095255;28;19927;-62
2022/11/08 06:50:47;;;;;;;4.97;2.08;;;11.10;99.90;;;;;;5095005;28;20048;-61
2022/11/08 06:53:14;;;;;;;5.40;1.80;;;11.00;99.90;;;;;;5095145;28;20111;-62
2022/11/08 06:55:41;;;;;;;6.40;2.08;;;11.10;99.90;;;;;;5095267;28;20494;-62
2022/11/08 06:58:10;;;;;;;10.55;2.17;;;11.10;99.90;;;;;;5095355;28;20036;-61
2022/11/08 07:00:38;;;;;;;5.40;2.03;;;11.10;99.90;;;;;;5095491;28;20436;-62
2022/11/08 07:03:07;;;;;;;6.30;2.72;;;11.10;99.90;;;;;;5094864;28;20088;-62
2022/11/08 07:05:36;;;;;;;10.80;2.90;;;11.20;99.90;;;;;;5094733;28;20046;-62
2022/11/08 07:08:04;;;;;;;8.48;2.22;;;11.30;99.90;;;;;;5094772;28;20044;-62
2022/11/08 07:10:33;;;;;;;12.93;2.75;;;11.30;99.90;;;;;;5095181;28;20040;-61
2022/11/08 07:13:09;;;;;;;5.18;1.77;;;11.30;99.90;;;;;;5094745;28;20569;-62
2022/11/08 07:15:39;;;;;;;7.25;1.90;;;11.30;99.90;;;;;;5094772;28;20083;-62
2022/11/08 07:18:09;;;;;;;11.07;2.60;;;11.40;99.90;;;;;;5095005;28;20039;-61
2022/11/08 07:20:38;;;;;;;5.30;2.08;;;11.40;99.90;;;;;;5094718;28;20465;-62
2022/11/08 07:23:06;;;;;;;5.33;2.10;;;11.40;99.90;;;;;;5093980;28;20486;-62
2022/11/08 07:25:35;;;;;;;4.88;1.80;;;11.50;99.90;;;;;;5093994;28;20683;-61
2022/11/08 07:28:13;;;;;;;7.33;1.93;;;11.50;99.90;;;;;;5094067;28;20398;-61
2022/11/08 07:30:42;;;;;;;3.40;1.70;;;11.50;99.90;;;;;;5093569;28;20293;-62
2022/11/08 07:33:09;;;;;;;5.47;1.95;;;11.50;99.90;;;;;;5093552;28;20079;-62
2022/11/08 07:35:38;;;;;;;6.82;2.20;;;11.50;99.90;;;;;;5093585;28;20375;-62
2022/11/08 07:38:06;;;;;;;6.38;2.38;;;11.60;99.90;;;;;;5093013;28;20032;-62
2022/11/08 07:40:34;;;;;;;4.82;1.80;;;11.60;99.90;;;;;;5093871;28;20080;-63
2022/11/08 07:43:00;;;;;;;8.75;1.90;;;11.60;99.90;;;;;;5093574;28;20097;-62
2022/11/08 07:45:27;;;;;;;13.68;2.20;;;11.70;99.90;;;;;;5093471;28;20051;-62
2022/11/08 07:48:02;;;;;;;3.28;1.52;;;11.70;99.90;;;;;;5092408;28;20565;-62
2022/11/08 07:50:30;;;;;;;5.03;2.08;;;11.70;99.90;;;;;;5091650;28;20039;-63
2022/11/08 07:52:57;;;;;;;8.20;2.30;;;11.70;99.90;;;;;;5092426;28;20040;-62
2022/11/08 07:55:23;;;;;;;3.97;1.80;;;11.70;99.90;;;;;;5093532;28;20036;-63
2022/11/08 07:57:49;;;;;;;7.32;2.00;;;11.80;99.90;;;;;;5092900;28;20036;-62
2022/11/08 08:00:17;;;;;;;4.88;1.50;;;11.80;99.90;;;;;;5093228;28;20052;-62
2022/11/08 08:02:43;;;;;;;4.90;1.42;;;11.90;99.90;;;;;;5092974;28;20051;-63
2022/11/08 08:05:10;;;;;;;3.90;1.92;;;11.90;99.90;;;;;;5093116;28;20040;-62
2022/11/08 08:07:36;;;;;;;8.15;1.80;;;12.00;99.90;;;;;;5093120;28;20390;-62
2022/11/08 08:10:04;;;;;;;4.30;1.63;;;12.00;99.90;;;;;;5093002;28;20486;-63
2022/11/08 08:12:31;;;;;;;6.70;1.90;;;12.10;99.90;;;;;;5093122;28;20077;-62
2022/11/08 08:14:57;;;;;;;3.65;1.80;;;12.10;99.90;;;;;;5092788;28;20043;-62
2022/11/08 08:17:23;;;;;;;4.90;1.45;;;12.20;99.90;;;;;;5091908;28;20394;-62
2022/11/08 08:19:49;;;;;;;4.00;1.70;;;12.20;99.90;;;;;;5091380;28;20044;-62
2022/11/08 08:22:15;;;;;;;10.02;2.13;;;12.30;99.90;;;;;;5090861;28;20042;-62
2022/11/08 08:24:40;;;;;;;6.50;1.85;;;12.30;99.90;;;;;;5091246;28;20044;-62
2022/11/08 08:27:06;;;;;;;6.22;1.85;;;12.30;99.90;;;;;;5056757;28;20048;-63
2022/11/08 08:29:32;;;;;;;6.35;1.60;;;12.30;99.90;;;;;;5092347;28;20047;-63
2022/11/08 08:31:58;;;;;;;5.10;1.88;;;12.40;99.90;;;;;;5091653;28;20082;-62
2022/11/08 08:34:23;;;;;;;5.95;1.63;;;12.40;99.90;;;;;;5074690;28;20090;-62
2022/11/08 08:36:49;;;;;;;5.70;1.95;;;12.40;99.90;;;;;;5092628;28;20036;-61
2022/11/08 08:39:15;;;;;;;5.63;1.50;;;12.40;99.90;;;;;;5092615;28;20394;-62
2022/11/08 08:41:41;;;;;;;3.90;1.98;;;12.50;99.90;;;;;;5092699;28;20531;-62
2022/11/08 08:44:06;;;;;;;9.40;2.00;;;12.60;99.90;;;;;;5092795;28;20036;-63
2022/11/08 08:46:32;;;;;;;4.88;1.77;;;12.60;99.90;;;;;;5092289;28;20040;-63
2022/11/08 08:48:58;;;;;;;5.63;1.60;;;12.70;99.90;;;;;;5091855;28;20109;-62
2022/11/08 08:51:24;;;;;;;8.20;2.33;;;12.80;99.90;;;;;;5092715;28;20557;-62
2022/11/08 08:53:52;;;;;;;4.22;1.60;;;12.80;99.90;;;;;;5092172;28;20036;-61
2022/11/08 08:56:19;;;;;;;;;;;12.80;99.90;;;;;;5092779;28;20537;-61
2022/11/08 08:58:45;;;;;;;7.07;1.83;;;12.80;99.90;;;;;;5092507;28;19970;-62
2022/11/08 09:01:12;;;;;;;5.03;1.88;;;12.80;99.90;;;;;;5092244;28;20608;-62
2022/11/08 09:03:38;;;;;;;3.47;1.50;;;12.90;99.90;;;;;;5092149;28;20039;-62
2022/11/08 09:06:03;;;;;;;6.28;1.85;;;12.90;99.90;;;;;;5092079;28;20040;-62
2022/11/08 09:08:29;;;;;;;6.22;2.17;;;13.00;99.90;;;;;;5092205;28;20032;-62
2022/11/08 09:10:57;;;;;;;10.63;1.77;;;13.00;99.90;;;;;;5092073;28;20092;-62
2022/11/08 09:13:25;;;;;;;8.23;2.42;;;13.10;99.90;;;;;;5092007;28;20115;-62
2022/11/08 09:15:51;;;;;;;4.63;2.10;;;13.10;99.90;;;;;;5091984;28;20092;-62
2022/11/08 09:18:17;;;;;;;4.93;1.92;;;13.20;99.90;;;;;;5091962;28;20032;-61
2022/11/08 09:20:43;;;;;;;8.00;2.20;;;13.20;99.90;;;;;;5091901;28;20043;-61
2022/11/08 09:23:13;;;;;;;8.77;1.80;;;13.20;99.90;;;;;;5091820;28;20036;-62
2022/11/08 09:25:39;;;;;;;5.57;1.70;;;13.20;99.90;;;;;;5091834;28;20407;-62
2022/11/08 09:28:05;;;;;;;5.45;2.20;;;13.20;99.90;;;;;;5091209;28;20106;-62
2022/11/08 09:30:31;;;;;;;4.43;1.42;;;13.20;99.90;;;;;;5091580;28;20506;-61
2022/11/08 09:32:57;;;;;;;3.05;1.60;;;13.30;99.90;;;;;;5091687;28;20063;-62
2022/11/08 09:35:23;;;;;;;7.82;2.33;;;13.30;99.90;;;;;;5090776;28;20466;-61
2022/11/08 09:37:51;;;;;;;5.72;2.45;;;13.30;99.90;;;;;;5073091;28;20102;-61
2022/11/08 09:40:22;;;;;;;4.53;1.60;;;13.40;99.90;;;;;;5091586;28;20394;-62
2022/11/08 09:43:07;;;;;;;4.60;1.65;;;13.40;99.90;;;;;;5091486;28;20035;-62
2022/11/08 09:45:42;;;;;;;3.53;1.50;;;13.50;99.90;;;;;;5091663;28;20047;-62
2022/11/08 09:48:25;;;;;;;6.60;2.13;;;13.50;99.90;;;;;;5091526;28;20048;-62
2022/11/08 09:50:54;;;;;;;3.45;1.63;;;13.60;99.90;;;;;;5089577;28;20043;-61
2022/11/08 09:53:34;;;;;;;4.32;1.95;;;13.60;99.90;;;;;;5089587;28;20036;-61
2022/11/08 09:56:30;;;;;;;4.35;1.60;;;13.70;99.90;;;;;;5091330;28;20040;-61
2022/11/08 09:59:01;;;;;;;3.08;1.73;;;13.70;99.90;;;;;;4989988;28;20125;-61
2022/11/08 10:01:36;;;;;;;6.18;1.60;;;13.80;99.90;;;;;;4989852;28;20041;-61
2022/11/08 10:04:07;;;;;;;5.80;2.20;;;13.80;99.90;;;;;;4989892;28;20057;-62
2022/11/08 10:06:38;;;;;;;4.35;1.83;;;13.90;99.90;;;;;;4989693;28;20116;-62
2022/11/08 10:09:31;;;;;;;3.45;1.80;;;13.90;99.90;;;;;;4989961;28;20085;-62
2022/11/08 10:12:18;;;;;;;4.55;1.40;;;13.90;99.90;;;;;;4989743;28;20077;-61
2022/11/08 10:14:57;;;;;;;2.50;1.33;;;13.90;99.90;;;;;;4989920;28;20042;-61
2022/11/08 10:17:23;;;;;;;3.50;1.88;;;13.90;99.90;;;;;;4989685;28;20453;-62
2022/11/08 10:19:55;;;;;;;4.63;1.70;;;13.90;99.90;;;;;;4989455;28;20046;-61
2022/11/08 10:22:43;;;;;;;4.80;1.90;;;13.90;99.90;;;;;;4989677;28;20050;-62
2022/11/08 10:25:36;;;;;;;6.50;1.70;;;13.90;99.90;;;;;;4989788;28;20401;-61
2022/11/08 10:28:05;;;;;;;4.45;1.60;;;13.90;99.90;;;;;;4989646;28;20382;-61
2022/11/08 10:30:40;;;;;;;5.88;1.85;;;13.90;99.90;;;;;;4989672;28;20048;-60
2022/11/08 10:33:41;;;;;;;3.88;1.80;;;13.90;99.90;;;;;;4989605;28;20134;-61
2022/11/08 10:36:10;;;;;;;;;;;13.90;99.90;;;;;;5060031;28;20440;-61
2022/11/08 10:39:13;;;;;;;5.78;2.00;;;14.00;99.90;;;;;;5091195;28;19923;-61
2022/11/08 10:42:05;;;;;;;4.00;1.30;;;14.00;99.90;;;;;;5095248;28;20438;-62
2022/11/08 10:44:32;;;;;;;4.40;1.75;;;14.00;99.90;;;;;;4992979;28;20092;-61
2022/11/08 10:47:10;;;;;;;4.28;1.85;;;14.00;99.90;;;;;;4992862;28;20105;-61
2022/11/08 10:49:41;;;;;;;4.80;1.73;;;13.90;99.90;;;;;;4992494;28;20073;-62
2022/11/08 10:52:12;;;;;;;3.97;1.67;;;13.90;99.90;;;;;;4992880;28;20047;-61
2022/11/08 10:54:55;;;;;;;5.38;2.05;;;13.90;99.90;;;;;;4992698;28;20038;-60
2022/11/08 10:57:24;;;;;;;4.93;2.10;;;13.90;99.90;;;;;;4992698;28;20046;-61
2022/11/08 10:59:50;;;;;;;3.83;1.73;;;13.90;99.90;;;;;;4992548;28;20193;-61
2022/11/08 11:02:28;;;;;;;4.65;1.67;;;13.80;99.90;;;;;;4992510;28;20505;-62
2022/11/08 11:05:14;;;;;;;7.93;1.80;;;13.80;99.90;;;;;;4976557;28;20145;-61
2022/11/08 11:07:43;;;;;;;4.75;1.50;;;13.80;99.90;;;;;;4976669;28;20596;-61
2022/11/08 11:10:26;;;;;;;7.47;2.38;;;13.80;99.90;;;;;;4992320;28;20065;-61
2022/11/08 11:13:25;;;;;;;2.85;1.55;;;13.80;99.90;;;;;;4992481;28;20050;-61
2022/11/08 11:15:59;;;;;;;7.05;1.67;;;13.90;99.90;;;;;;4992368;28;20509;-62
2022/11/08 11:18:32;;;;;;;8.55;1.77;;;14.00;99.90;;;;;;4992540;28;20042;-61
2022/11/08 11:21:21;;;;;;;3.25;1.70;;;13.90;99.90;;;;;;5020361;28;20054;-61
2022/11/08 11:23:53;;;;;;;5.05;2.22;;;14.00;99.90;;;;;;5093747;28;20508;-61
2022/11/08 11:26:58;;;;;;;2.63;1.55;;;14.00;99.90;;;;;;5093971;28;20035;-61
2022/11/08 11:29:33;;;;;;;4.57;1.92;;;14.00;99.90;;;;;;5093787;28;20314;-62
2022/11/08 11:32:32;;;;;;;4.53;1.70;;;14.00;99.90;;;;;;5094185;28;20105;-61
2022/11/08 11:35:07;;;;;;;4.10;1.73;;;14.10;99.90;;;;;;5093731;28;20501;-61
2022/11/08 11:37:41;;;;;;;3.95;1.50;;;14.20;99.90;;;;;;5093577;28;20119;-61
2022/11/08 11:40:31;;;;;;;4.43;1.75;;;14.20;99.90;;;;;;5093626;28;20051;-61
2022/11/08 11:43:41;;;;;;;5.32;1.42;;;14.40;99.90;;;;;;5093654;28;20054;-61
2022/11/08 11:46:27;;;;;;;4.55;1.60;;;14.40;99.90;;;;;;5093456;28;20509;-60
2022/11/08 11:49:03;;;;;;;3.28;1.60;;;14.40;99.90;;;;;;5093044;28;20087;-61
2022/11/08 11:51:30;;;;;;;5.50;1.77;;;14.40;99.90;;;;;;5093115;28;20075;-61
2022/11/08 11:53:57;;;;;;;3.17;1.52;;;14.40;99.90;;;;;;5092698;28;20398;-61
2022/11/08 11:57:00;;;;;;;8.63;2.55;;;14.40;99.90;;;;;;5093261;28;20036;-60
2022/11/08 11:59:40;;;;;;;3.88;1.80;;;14.40;99.90;;;;;;5093268;28;20091;-61
2022/11/08 12:02:54;;;;;;;6.88;1.60;;;14.50;99.90;;;;;;5092977;28;20035;-61
2022/11/08 12:05:48;;;;;;;6.07;2.00;;;14.50;99.90;;;;;;4991388;28;20042;-61
2022/11/08 12:08:27;;;;;;;3.90;1.70;;;14.60;99.90;;;;;;4991512;28;20477;-61
2022/11/08 12:11:43;;;;;;;5.47;1.90;;;14.70;99.90;;;;;;4990604;28;20055;-61
2022/11/08 12:14:30;;;;;;;3.33;1.50;;;14.70;99.90;;;;;;4914437;29;20120;-61
2022/11/08 12:17:01;;;;;;;5.90;1.60;;;14.70;99.90;;;;;;4914173;29;20139;-62
2022/11/08 12:20:04;;;;;;;4.25;1.85;;;14.80;99.90;;;;;;4914302;29;20169;-61
2022/11/08 12:22:47;;;;;;;8.60;3.10;;;14.80;99.90;;;;;;4914448;29;20044;-60
2022/11/08 12:25:45;;;;;;;3.17;1.40;;;14.80;99.90;;;;;;4914274;29;20047;-61
2022/11/08 12:28:33;;;;;;;5.57;1.60;;;14.80;99.90;;;;;;4914063;29;20529;-61
2022/11/08 12:31:16;;;;;;;3.67;1.55;;;14.80;99.90;;;;;;4914076;29;20059;-61
2022/11/08 12:34:06;;;;;;;8.95;2.20;;;14.90;99.90;;;;;;4914044;29;20040;-61
2022/11/08 12:36:36;;;;;;;7.63;2.30;;;14.80;99.90;;;;;;4971682;28;20062;-61
2022/11/08 12:39:36;;;;;;;5.22;1.98;;;14.80;99.90;;;;;;4990809;28;20121;-61
2022/11/08 12:42:10;;;;;;;5.45;1.70;;;14.80;99.90;;;;;;4914228;29;20044;-61
2022/11/08 12:45:23;;;;;;;5.22;1.80;;;14.80;99.90;;;;;;4913990;29;20076;-61
2022/11/08 12:48:08;;;;;;;4.00;1.65;;;14.80;99.90;;;;;;4913863;29;20495;-61
2022/11/08 12:51:00;;;;;;;4.05;1.83;;;14.80;99.90;;;;;;4961951;28;20051;-61
2022/11/08 12:53:47;;;;;;;3.38;1.60;;;14.80;99.90;;;;;;4971353;28;20087;-61
2022/11/08 12:56:20;;;;;;;3.08;1.58;;;14.80;99.90;;;;;;4971295;28;20454;-61
2022/11/08 12:58:54;;;;;;;4.50;1.50;;;14.80;99.90;;;;;;4970792;28;20050;-61
2022/11/08 13:01:22;;;;;;;3.20;1.63;;;14.80;99.90;;;;;;4970955;28;20046;-61
2022/11/08 13:04:08;;;;;;;2.35;1.50;;;14.90;99.90;;;;;;4970263;28;20051;-61
2022/11/08 13:06:49;;;;;;;5.13;1.92;;;14.90;99.90;;;;;;4970997;28;20379;-60
2022/11/08 13:09:49;;;;;;;3.72;1.60;;;14.90;99.90;;;;;;4970477;28;20058;-61
2022/11/08 13:12:26;;;;;;;3.53;1.38;;;14.90;99.90;;;;;;4913535;29;20060;-61
2022/11/08 13:14:53;;;;;;;4.30;1.70;;;14.90;99.90;;;;;;4913638;29;20047;-61
2022/11/08 13:17:25;;;;;;;3.55;1.83;;;15.10;99.90;;;;;;4913281;29;20115;-61
2022/11/08 13:20:05;;;;;;;4.65;1.83;;;15.10;99.90;;;;;;4931052;29;20043;-60
2022/11/08 13:22:42;;;;;;;3.78;1.58;;;15.20;99.90;;;;;;4940381;28;20117;-60
2022/11/08 13:25:32;;;;;;;4.63;1.70;;;15.20;99.90;;;;;;4990129;28;20038;-61
2022/11/08 13:27:58;;;;;;;2.92;1.48;;;15.20;99.90;;;;;;4990168;28;20495;-61
2022/11/08 13:30:24;;;;;;;4.30;2.00;;;15.20;99.90;;;;;;4989707;28;20054;-61
2022/11/08 13:32:58;;;;;;;4.57;1.50;;;15.30;99.90;;;;;;4990120;28;20038;-61
2022/11/08 13:35:32;;;;;;;6.95;1.67;;;15.20;99.90;;;;;;4989919;28;20477;-61